<?xml version="1.0" encoding="UTF-8" standalone="no" ?>
<gpx xmlns="http://www.topografix.com/GPX/1/1" xmlns:xsi="http://www.w3.org/2001/XMLSchema-instance" xsi:schemaLocation="http://www.topografix.com/GPX/1/1 http://www.topografix.com/GPX/1/1/gpx.xsd" version="1.1" creator="VisuGPX - https://www.visugpx.com">
  <metadata>
    <name>Parcours VTT Aglo 2021</name>
  </metadata>
  <trk>
    <name><![CDATA[Vert Montclus village]]></name>
    <extensions>
      <line xmlns="http://www.topografix.com/GPX/gpx_style/0/2">
        <color>00ff00</color>
        <width>4</width>
      </line>
    </extensions>
    <trkseg>
      <trkpt lat="44.26213" lon="4.42005">
        <ele>91</ele>
        <time>2021-07-04T13:10:12Z</time>
      </trkpt>
      <trkpt lat="44.26213" lon="4.42005">
        <ele>91</ele>
        <time>2021-07-04T13:10:12Z</time>
      </trkpt>
      <trkpt lat="44.26214" lon="4.42004">
        <ele>91</ele>
        <time>2021-07-04T13:10:12Z</time>
      </trkpt>
      <trkpt lat="44.26228" lon="4.42007">
        <ele>89</ele>
        <time>2021-07-04T13:10:16Z</time>
      </trkpt>
      <trkpt lat="44.26237" lon="4.42014">
        <ele>88</ele>
        <time>2021-07-04T13:10:18Z</time>
      </trkpt>
      <trkpt lat="44.26268" lon="4.4202">
        <ele>87</ele>
        <time>2021-07-04T13:10:25Z</time>
      </trkpt>
      <trkpt lat="44.263" lon="4.42025">
        <ele>87</ele>
        <time>2021-07-04T13:10:33Z</time>
      </trkpt>
      <trkpt lat="44.26301" lon="4.42026">
        <ele>88</ele>
        <time>2021-07-04T13:10:33Z</time>
      </trkpt>
      <trkpt lat="44.2632" lon="4.42031">
        <ele>88</ele>
        <time>2021-07-04T13:10:38Z</time>
      </trkpt>
      <trkpt lat="44.26341" lon="4.4204">
        <ele>89</ele>
        <time>2021-07-04T13:10:43Z</time>
      </trkpt>
      <trkpt lat="44.26377" lon="4.42052">
        <ele>89</ele>
        <time>2021-07-04T13:10:51Z</time>
      </trkpt>
      <trkpt lat="44.26421" lon="4.42075">
        <ele>91</ele>
        <time>2021-07-04T13:11:02Z</time>
      </trkpt>
      <trkpt lat="44.26434" lon="4.42097">
        <ele>90</ele>
        <time>2021-07-04T13:11:07Z</time>
      </trkpt>
      <trkpt lat="44.26449" lon="4.42169">
        <ele>91</ele>
        <time>2021-07-04T13:11:20Z</time>
      </trkpt>
      <trkpt lat="44.26454" lon="4.42194">
        <ele>91</ele>
        <time>2021-07-04T13:11:24Z</time>
      </trkpt>
      <trkpt lat="44.26475" lon="4.42237">
        <ele>92</ele>
        <time>2021-07-04T13:11:33Z</time>
      </trkpt>
      <trkpt lat="44.26496" lon="4.42282">
        <ele>92</ele>
        <time>2021-07-04T13:11:42Z</time>
      </trkpt>
      <trkpt lat="44.26511" lon="4.42311">
        <ele>92</ele>
        <time>2021-07-04T13:11:48Z</time>
      </trkpt>
      <trkpt lat="44.26527" lon="4.42339">
        <ele>92</ele>
        <time>2021-07-04T13:11:54Z</time>
      </trkpt>
      <trkpt lat="44.26543" lon="4.42373">
        <ele>92</ele>
        <time>2021-07-04T13:12:00Z</time>
      </trkpt>
      <trkpt lat="44.26554" lon="4.42414">
        <ele>93</ele>
        <time>2021-07-04T13:12:08Z</time>
      </trkpt>
      <trkpt lat="44.26566" lon="4.42455">
        <ele>96</ele>
        <time>2021-07-04T13:12:15Z</time>
      </trkpt>
      <trkpt lat="44.26591" lon="4.42548">
        <ele>99</ele>
        <time>2021-07-04T13:12:32Z</time>
      </trkpt>
      <trkpt lat="44.26597" lon="4.42574">
        <ele>100</ele>
        <time>2021-07-04T13:12:36Z</time>
      </trkpt>
      <trkpt lat="44.26607" lon="4.42602">
        <ele>101</ele>
        <time>2021-07-04T13:12:42Z</time>
      </trkpt>
      <trkpt lat="44.26614" lon="4.42623">
        <ele>102</ele>
        <time>2021-07-04T13:12:46Z</time>
      </trkpt>
      <trkpt lat="44.26608" lon="4.42625">
        <ele>103</ele>
        <time>2021-07-04T13:12:47Z</time>
      </trkpt>
      <trkpt lat="44.26603" lon="4.4263">
        <ele>104</ele>
        <time>2021-07-04T13:12:48Z</time>
      </trkpt>
      <trkpt lat="44.26602" lon="4.42661">
        <ele>106</ele>
        <time>2021-07-04T13:12:54Z</time>
      </trkpt>
      <trkpt lat="44.26599" lon="4.42683">
        <ele>107</ele>
        <time>2021-07-04T13:12:57Z</time>
      </trkpt>
      <trkpt lat="44.26592" lon="4.42726">
        <ele>110</ele>
        <time>2021-07-04T13:13:05Z</time>
      </trkpt>
      <trkpt lat="44.26579" lon="4.428">
        <ele>115</ele>
        <time>2021-07-04T13:13:17Z</time>
      </trkpt>
      <trkpt lat="44.26577" lon="4.42812">
        <ele>116</ele>
        <time>2021-07-04T13:13:19Z</time>
      </trkpt>
      <trkpt lat="44.26568" lon="4.42816">
        <ele>116</ele>
        <time>2021-07-04T13:13:22Z</time>
      </trkpt>
      <trkpt lat="44.26559" lon="4.42822">
        <ele>117</ele>
        <time>2021-07-04T13:13:24Z</time>
      </trkpt>
      <trkpt lat="44.26556" lon="4.42824">
        <ele>117</ele>
        <time>2021-07-04T13:13:25Z</time>
      </trkpt>
      <trkpt lat="44.26551" lon="4.42829">
        <ele>117</ele>
        <time>2021-07-04T13:13:26Z</time>
      </trkpt>
      <trkpt lat="44.2654" lon="4.42839">
        <ele>117</ele>
        <time>2021-07-04T13:13:29Z</time>
      </trkpt>
      <trkpt lat="44.265" lon="4.42865">
        <ele>116</ele>
        <time>2021-07-04T13:13:40Z</time>
      </trkpt>
      <trkpt lat="44.26496" lon="4.42869">
        <ele>116</ele>
        <time>2021-07-04T13:13:41Z</time>
      </trkpt>
      <trkpt lat="44.26492" lon="4.42876">
        <ele>115</ele>
        <time>2021-07-04T13:13:42Z</time>
      </trkpt>
      <trkpt lat="44.26486" lon="4.42884">
        <ele>114</ele>
        <time>2021-07-04T13:13:44Z</time>
      </trkpt>
      <trkpt lat="44.26475" lon="4.42891">
        <ele>113</ele>
        <time>2021-07-04T13:13:47Z</time>
      </trkpt>
      <trkpt lat="44.2647" lon="4.42895">
        <ele>112</ele>
        <time>2021-07-04T13:13:48Z</time>
      </trkpt>
      <trkpt lat="44.26458" lon="4.42899">
        <ele>111</ele>
        <time>2021-07-04T13:13:51Z</time>
      </trkpt>
      <trkpt lat="44.26446" lon="4.429">
        <ele>110</ele>
        <time>2021-07-04T13:13:54Z</time>
      </trkpt>
      <trkpt lat="44.26431" lon="4.42895">
        <ele>109</ele>
        <time>2021-07-04T13:13:58Z</time>
      </trkpt>
      <trkpt lat="44.26419" lon="4.42892">
        <ele>109</ele>
        <time>2021-07-04T13:14:01Z</time>
      </trkpt>
      <trkpt lat="44.26413" lon="4.42893">
        <ele>109</ele>
        <time>2021-07-04T13:14:02Z</time>
      </trkpt>
      <trkpt lat="44.26407" lon="4.42896">
        <ele>109</ele>
        <time>2021-07-04T13:14:03Z</time>
      </trkpt>
      <trkpt lat="44.26406" lon="4.42898">
        <ele>108</ele>
        <time>2021-07-04T13:14:04Z</time>
      </trkpt>
      <trkpt lat="44.26405" lon="4.42902">
        <ele>108</ele>
        <time>2021-07-04T13:14:05Z</time>
      </trkpt>
      <trkpt lat="44.26405" lon="4.42904">
        <ele>107</ele>
        <time>2021-07-04T13:14:05Z</time>
      </trkpt>
      <trkpt lat="44.26406" lon="4.42906">
        <ele>107</ele>
        <time>2021-07-04T13:14:05Z</time>
      </trkpt>
      <trkpt lat="44.26413" lon="4.42911">
        <ele>106</ele>
        <time>2021-07-04T13:14:07Z</time>
      </trkpt>
      <trkpt lat="44.26424" lon="4.42922">
        <ele>105</ele>
        <time>2021-07-04T13:14:10Z</time>
      </trkpt>
      <trkpt lat="44.2644" lon="4.42945">
        <ele>105</ele>
        <time>2021-07-04T13:14:16Z</time>
      </trkpt>
      <trkpt lat="44.26455" lon="4.4297">
        <ele>105</ele>
        <time>2021-07-04T13:14:21Z</time>
      </trkpt>
      <trkpt lat="44.26458" lon="4.42981">
        <ele>104</ele>
        <time>2021-07-04T13:14:23Z</time>
      </trkpt>
      <trkpt lat="44.26457" lon="4.4299">
        <ele>104</ele>
        <time>2021-07-04T13:14:25Z</time>
      </trkpt>
      <trkpt lat="44.26456" lon="4.42995">
        <ele>103</ele>
        <time>2021-07-04T13:14:25Z</time>
      </trkpt>
      <trkpt lat="44.26453" lon="4.42997">
        <ele>102</ele>
        <time>2021-07-04T13:14:26Z</time>
      </trkpt>
      <trkpt lat="44.26448" lon="4.42997">
        <ele>101</ele>
        <time>2021-07-04T13:14:27Z</time>
      </trkpt>
      <trkpt lat="44.26426" lon="4.42964">
        <ele>100</ele>
        <time>2021-07-04T13:14:35Z</time>
      </trkpt>
      <trkpt lat="44.26408" lon="4.42949">
        <ele>101</ele>
        <time>2021-07-04T13:14:40Z</time>
      </trkpt>
      <trkpt lat="44.26387" lon="4.42938">
        <ele>102</ele>
        <time>2021-07-04T13:14:45Z</time>
      </trkpt>
      <trkpt lat="44.2637" lon="4.4293">
        <ele>103</ele>
        <time>2021-07-04T13:14:49Z</time>
      </trkpt>
      <trkpt lat="44.26287" lon="4.42925">
        <ele>103</ele>
        <time>2021-07-04T13:15:09Z</time>
      </trkpt>
      <trkpt lat="44.26267" lon="4.42925">
        <ele>102</ele>
        <time>2021-07-04T13:15:13Z</time>
      </trkpt>
      <trkpt lat="44.26221" lon="4.4293">
        <ele>99</ele>
        <time>2021-07-04T13:15:24Z</time>
      </trkpt>
      <trkpt lat="44.26177" lon="4.42927">
        <ele>97</ele>
        <time>2021-07-04T13:15:34Z</time>
      </trkpt>
      <trkpt lat="44.26148" lon="4.42914">
        <ele>98</ele>
        <time>2021-07-04T13:15:41Z</time>
      </trkpt>
      <trkpt lat="44.26119" lon="4.42896">
        <ele>101</ele>
        <time>2021-07-04T13:15:49Z</time>
      </trkpt>
      <trkpt lat="44.26091" lon="4.42876">
        <ele>102</ele>
        <time>2021-07-04T13:15:56Z</time>
      </trkpt>
      <trkpt lat="44.26053" lon="4.42858">
        <ele>101</ele>
        <time>2021-07-04T13:16:06Z</time>
      </trkpt>
      <trkpt lat="44.26023" lon="4.4284">
        <ele>100</ele>
        <time>2021-07-04T13:16:13Z</time>
      </trkpt>
      <trkpt lat="44.26014" lon="4.42831">
        <ele>100</ele>
        <time>2021-07-04T13:16:16Z</time>
      </trkpt>
      <trkpt lat="44.2601" lon="4.42822">
        <ele>100</ele>
        <time>2021-07-04T13:16:18Z</time>
      </trkpt>
      <trkpt lat="44.2601" lon="4.42819">
        <ele>101</ele>
        <time>2021-07-04T13:16:18Z</time>
      </trkpt>
      <trkpt lat="44.26009" lon="4.42808">
        <ele>101</ele>
        <time>2021-07-04T13:16:20Z</time>
      </trkpt>
      <trkpt lat="44.26012" lon="4.428">
        <ele>102</ele>
        <time>2021-07-04T13:16:21Z</time>
      </trkpt>
      <trkpt lat="44.26003" lon="4.42803">
        <ele>101</ele>
        <time>2021-07-04T13:16:24Z</time>
      </trkpt>
      <trkpt lat="44.25997" lon="4.42804">
        <ele>101</ele>
        <time>2021-07-04T13:16:25Z</time>
      </trkpt>
      <trkpt lat="44.25962" lon="4.42822">
        <ele>97</ele>
        <time>2021-07-04T13:16:34Z</time>
      </trkpt>
      <trkpt lat="44.25927" lon="4.42838">
        <ele>94</ele>
        <time>2021-07-04T13:16:42Z</time>
      </trkpt>
      <trkpt lat="44.25917" lon="4.42835">
        <ele>94</ele>
        <time>2021-07-04T13:16:45Z</time>
      </trkpt>
      <trkpt lat="44.25878" lon="4.4282">
        <ele>93</ele>
        <time>2021-07-04T13:16:54Z</time>
      </trkpt>
      <trkpt lat="44.25858" lon="4.42808">
        <ele>93</ele>
        <time>2021-07-04T13:16:59Z</time>
      </trkpt>
      <trkpt lat="44.2585" lon="4.42794">
        <ele>94</ele>
        <time>2021-07-04T13:17:02Z</time>
      </trkpt>
      <trkpt lat="44.25839" lon="4.4276">
        <ele>96</ele>
        <time>2021-07-04T13:17:08Z</time>
      </trkpt>
      <trkpt lat="44.2583" lon="4.42742">
        <ele>96</ele>
        <time>2021-07-04T13:17:12Z</time>
      </trkpt>
      <trkpt lat="44.25826" lon="4.42728">
        <ele>97</ele>
        <time>2021-07-04T13:17:15Z</time>
      </trkpt>
      <trkpt lat="44.25823" lon="4.42727">
        <ele>97</ele>
        <time>2021-07-04T13:17:15Z</time>
      </trkpt>
      <trkpt lat="44.258" lon="4.42719">
        <ele>95</ele>
        <time>2021-07-04T13:17:21Z</time>
      </trkpt>
      <trkpt lat="44.2578" lon="4.42669">
        <ele>96</ele>
        <time>2021-07-04T13:17:31Z</time>
      </trkpt>
      <trkpt lat="44.2576" lon="4.4262">
        <ele>94</ele>
        <time>2021-07-04T13:17:40Z</time>
      </trkpt>
      <trkpt lat="44.25762" lon="4.42574">
        <ele>96</ele>
        <time>2021-07-04T13:17:48Z</time>
      </trkpt>
      <trkpt lat="44.25764" lon="4.4255">
        <ele>96</ele>
        <time>2021-07-04T13:17:52Z</time>
      </trkpt>
      <trkpt lat="44.25768" lon="4.42525">
        <ele>96</ele>
        <time>2021-07-04T13:17:56Z</time>
      </trkpt>
      <trkpt lat="44.25777" lon="4.42494">
        <ele>99</ele>
        <time>2021-07-04T13:18:02Z</time>
      </trkpt>
      <trkpt lat="44.25792" lon="4.4246">
        <ele>101</ele>
        <time>2021-07-04T13:18:08Z</time>
      </trkpt>
      <trkpt lat="44.25807" lon="4.42426">
        <ele>102</ele>
        <time>2021-07-04T13:18:15Z</time>
      </trkpt>
      <trkpt lat="44.25826" lon="4.42398">
        <ele>103</ele>
        <time>2021-07-04T13:18:21Z</time>
      </trkpt>
      <trkpt lat="44.25851" lon="4.4236">
        <ele>104</ele>
        <time>2021-07-04T13:18:30Z</time>
      </trkpt>
      <trkpt lat="44.25907" lon="4.42269">
        <ele>105</ele>
        <time>2021-07-04T13:18:50Z</time>
      </trkpt>
      <trkpt lat="44.2591" lon="4.42259">
        <ele>104</ele>
        <time>2021-07-04T13:18:52Z</time>
      </trkpt>
      <trkpt lat="44.25906" lon="4.4225">
        <ele>102</ele>
        <time>2021-07-04T13:18:54Z</time>
      </trkpt>
      <trkpt lat="44.25875" lon="4.42222">
        <ele>95</ele>
        <time>2021-07-04T13:19:02Z</time>
      </trkpt>
      <trkpt lat="44.25843" lon="4.42194">
        <ele>90</ele>
        <time>2021-07-04T13:19:11Z</time>
      </trkpt>
      <trkpt lat="44.2584" lon="4.42186">
        <ele>89</ele>
        <time>2021-07-04T13:19:13Z</time>
      </trkpt>
      <trkpt lat="44.25843" lon="4.42178">
        <ele>89</ele>
        <time>2021-07-04T13:19:14Z</time>
      </trkpt>
      <trkpt lat="44.25862" lon="4.42142">
        <ele>90</ele>
        <time>2021-07-04T13:19:22Z</time>
      </trkpt>
      <trkpt lat="44.25881" lon="4.42107">
        <ele>90</ele>
        <time>2021-07-04T13:19:29Z</time>
      </trkpt>
      <trkpt lat="44.259" lon="4.42071">
        <ele>90</ele>
        <time>2021-07-04T13:19:36Z</time>
      </trkpt>
      <trkpt lat="44.25955" lon="4.41986">
        <ele>92</ele>
        <time>2021-07-04T13:19:56Z</time>
      </trkpt>
      <trkpt lat="44.25958" lon="4.41981">
        <ele>93</ele>
        <time>2021-07-04T13:19:57Z</time>
      </trkpt>
      <trkpt lat="44.25966" lon="4.41986">
        <ele>93</ele>
        <time>2021-07-04T13:19:59Z</time>
      </trkpt>
      <trkpt lat="44.25998" lon="4.4202">
        <ele>97</ele>
        <time>2021-07-04T13:20:08Z</time>
      </trkpt>
      <trkpt lat="44.26003" lon="4.42026">
        <ele>97</ele>
        <time>2021-07-04T13:20:10Z</time>
      </trkpt>
      <trkpt lat="44.26024" lon="4.42052">
        <ele>101</ele>
        <time>2021-07-04T13:20:16Z</time>
      </trkpt>
      <trkpt lat="44.26047" lon="4.42071">
        <ele>105</ele>
        <time>2021-07-04T13:20:22Z</time>
      </trkpt>
      <trkpt lat="44.26052" lon="4.42076">
        <ele>105</ele>
        <time>2021-07-04T13:20:24Z</time>
      </trkpt>
      <trkpt lat="44.26063" lon="4.42078">
        <ele>107</ele>
        <time>2021-07-04T13:20:26Z</time>
      </trkpt>
      <trkpt lat="44.26067" lon="4.42078">
        <ele>107</ele>
        <time>2021-07-04T13:20:27Z</time>
      </trkpt>
      <trkpt lat="44.26068" lon="4.42077">
        <ele>108</ele>
        <time>2021-07-04T13:20:28Z</time>
      </trkpt>
      <trkpt lat="44.26078" lon="4.42074">
        <ele>109</ele>
        <time>2021-07-04T13:20:30Z</time>
      </trkpt>
      <trkpt lat="44.26085" lon="4.42068">
        <ele>109</ele>
        <time>2021-07-04T13:20:32Z</time>
      </trkpt>
      <trkpt lat="44.26099" lon="4.4205">
        <ele>106</ele>
        <time>2021-07-04T13:20:36Z</time>
      </trkpt>
      <trkpt lat="44.26092" lon="4.42041">
        <ele>106</ele>
        <time>2021-07-04T13:20:39Z</time>
      </trkpt>
      <trkpt lat="44.26089" lon="4.42034">
        <ele>106</ele>
        <time>2021-07-04T13:20:40Z</time>
      </trkpt>
      <trkpt lat="44.26087" lon="4.42022">
        <ele>105</ele>
        <time>2021-07-04T13:20:42Z</time>
      </trkpt>
      <trkpt lat="44.26088" lon="4.42011">
        <ele>104</ele>
        <time>2021-07-04T13:20:44Z</time>
      </trkpt>
      <trkpt lat="44.26089" lon="4.41993">
        <ele>103</ele>
        <time>2021-07-04T13:20:47Z</time>
      </trkpt>
      <trkpt lat="44.26092" lon="4.4198">
        <ele>101</ele>
        <time>2021-07-04T13:20:49Z</time>
      </trkpt>
      <trkpt lat="44.26096" lon="4.41965">
        <ele>98</ele>
        <time>2021-07-04T13:20:52Z</time>
      </trkpt>
      <trkpt lat="44.26106" lon="4.41971">
        <ele>99</ele>
        <time>2021-07-04T13:20:54Z</time>
      </trkpt>
      <trkpt lat="44.26124" lon="4.4197">
        <ele>97</ele>
        <time>2021-07-04T13:20:59Z</time>
      </trkpt>
      <trkpt lat="44.26127" lon="4.41969">
        <ele>97</ele>
        <time>2021-07-04T13:20:59Z</time>
      </trkpt>
      <trkpt lat="44.26128" lon="4.41965">
        <ele>97</ele>
        <time>2021-07-04T13:21:00Z</time>
      </trkpt>
      <trkpt lat="44.26131" lon="4.41966">
        <ele>97</ele>
        <time>2021-07-04T13:21:01Z</time>
      </trkpt>
      <trkpt lat="44.2614" lon="4.41967">
        <ele>96</ele>
        <time>2021-07-04T13:21:03Z</time>
      </trkpt>
      <trkpt lat="44.26148" lon="4.41971">
        <ele>96</ele>
        <time>2021-07-04T13:21:05Z</time>
      </trkpt>
      <trkpt lat="44.26161" lon="4.41974">
        <ele>96</ele>
        <time>2021-07-04T13:21:08Z</time>
      </trkpt>
      <trkpt lat="44.26163" lon="4.41976">
        <ele>96</ele>
        <time>2021-07-04T13:21:09Z</time>
      </trkpt>
      <trkpt lat="44.26177" lon="4.41994">
        <ele>96</ele>
        <time>2021-07-04T13:21:13Z</time>
      </trkpt>
      <trkpt lat="44.26191" lon="4.41999">
        <ele>94</ele>
        <time>2021-07-04T13:21:16Z</time>
      </trkpt>
      <trkpt lat="44.26203" lon="4.42001">
        <ele>93</ele>
        <time>2021-07-04T13:21:19Z</time>
      </trkpt>
    </trkseg>
  </trk>
</gpx>